sensor_id;sensor_type;location;lat;lon;timestamp;temperature;humidity
56478;DHT22;42382;53.210;5.772;2022-12-29T00:02:07;9.40;95.80
56478;DHT22;42382;53.210;5.772;2022-12-29T00:04:32;9.50;95.90
56478;DHT22;42382;53.210;5.772;2022-12-29T00:06:57;9.50;95.90
56478;DHT22;42382;53.210;5.772;2022-12-29T00:09:23;9.50;95.90
56478;DHT22;42382;53.210;5.772;2022-12-29T00:11:49;9.50;95.70
56478;DHT22;42382;53.210;5.772;2022-12-29T00:14:15;9.40;95.80
56478;DHT22;42382;53.210;5.772;2022-12-29T00:16:59;9.40;95.90
56478;DHT22;42382;53.210;5.772;2022-12-29T00:19:26;9.40;95.80
56478;DHT22;42382;53.210;5.772;2022-12-29T00:22:11;9.40;95.90
56478;DHT22;42382;53.210;5.772;2022-12-29T00:24:55;9.40;95.90
56478;DHT22;42382;53.210;5.772;2022-12-29T00:27:29;9.40;95.80
56478;DHT22;42382;53.210;5.772;2022-12-29T00:30:15;9.30;95.70
56478;DHT22;42382;53.210;5.772;2022-12-29T00:32:59;9.30;95.70
56478;DHT22;42382;53.210;5.772;2022-12-29T00:35:50;9.30;95.80
56478;DHT22;42382;53.210;5.772;2022-12-29T00:38:17;9.30;95.90
56478;DHT22;42382;53.210;5.772;2022-12-29T00:41:01;9.30;95.90
56478;DHT22;42382;53.210;5.772;2022-12-29T00:43:45;9.40;95.90
56478;DHT22;42382;53.210;5.772;2022-12-29T00:46:29;9.30;95.80
56478;DHT22;42382;53.210;5.772;2022-12-29T00:48:55;9.30;95.90
56478;DHT22;42382;53.210;5.772;2022-12-29T00:51:39;9.30;95.90
56478;DHT22;42382;53.210;5.772;2022-12-29T00:54:05;9.40;96.00
56478;DHT22;42382;53.210;5.772;2022-12-29T00:56:30;9.30;95.80
56478;DHT22;42382;53.210;5.772;2022-12-29T00:58:59;9.40;95.80
56478;DHT22;42382;53.210;5.772;2022-12-29T01:01:24;9.40;95.90
56478;DHT22;42382;53.210;5.772;2022-12-29T01:03:50;9.30;95.80
56478;DHT22;42382;53.210;5.772;2022-12-29T01:06:15;9.40;95.90
56478;DHT22;42382;53.210;5.772;2022-12-29T01:08:41;9.30;95.80
56478;DHT22;42382;53.210;5.772;2022-12-29T01:11:07;9.40;95.80
56478;DHT22;42382;53.210;5.772;2022-12-29T01:13:33;9.30;95.80
56478;DHT22;42382;53.210;5.772;2022-12-29T01:15:59;9.40;95.80
56478;DHT22;42382;53.210;5.772;2022-12-29T01:18:25;9.30;95.70
56478;DHT22;42382;53.210;5.772;2022-12-29T01:20:51;9.30;95.70
56478;DHT22;42382;53.210;5.772;2022-12-29T01:23:16;9.30;95.90
56478;DHT22;42382;53.210;5.772;2022-12-29T01:25:42;9.30;95.90
56478;DHT22;42382;53.210;5.772;2022-12-29T01:28:07;9.40;95.80
56478;DHT22;42382;53.210;5.772;2022-12-29T01:30:36;9.40;95.80
56478;DHT22;42382;53.210;5.772;2022-12-29T01:33:02;9.40;95.90
56478;DHT22;42382;53.210;5.772;2022-12-29T01:35:27;9.40;95.90
56478;DHT22;42382;53.210;5.772;2022-12-29T01:37:53;9.40;95.90
56478;DHT22;42382;53.210;5.772;2022-12-29T01:40:18;9.50;95.80
56478;DHT22;42382;53.210;5.772;2022-12-29T01:42:44;9.50;95.70
56478;DHT22;42382;53.210;5.772;2022-12-29T01:45:10;9.40;95.80
56478;DHT22;42382;53.210;5.772;2022-12-29T01:47:38;9.50;95.90
56478;DHT22;42382;53.210;5.772;2022-12-29T01:50:15;9.50;95.80
56478;DHT22;42382;53.210;5.772;2022-12-29T01:52:43;9.40;95.80
56478;DHT22;42382;53.210;5.772;2022-12-29T01:55:12;9.40;95.80
56478;DHT22;42382;53.210;5.772;2022-12-29T01:57:39;9.40;95.90
56478;DHT22;42382;53.210;5.772;2022-12-29T02:00:10;9.40;95.90
56478;DHT22;42382;53.210;5.772;2022-12-29T02:02:36;9.40;95.90
56478;DHT22;42382;53.210;5.772;2022-12-29T02:05:07;9.40;95.90
56478;DHT22;42382;53.210;5.772;2022-12-29T02:07:34;9.40;95.90
56478;DHT22;42382;53.210;5.772;2022-12-29T02:09:59;9.40;96.00
56478;DHT22;42382;53.210;5.772;2022-12-29T02:12:26;9.40;96.00
56478;DHT22;42382;53.210;5.772;2022-12-29T02:14:53;9.40;96.00
56478;DHT22;42382;53.210;5.772;2022-12-29T02:17:41;9.40;95.90
56478;DHT22;42382;53.210;5.772;2022-12-29T02:22:58;9.40;95.80
56478;DHT22;42382;53.210;5.772;2022-12-29T02:35:47;9.20;95.90
56478;DHT22;42382;53.210;5.772;2022-12-29T02:40:59;9.20;95.90
56478;DHT22;42382;53.210;5.772;2022-12-29T02:46:19;9.20;95.90
56478;DHT22;42382;53.210;5.772;2022-12-29T02:48:52;9.10;95.90
56478;DHT22;42382;53.210;5.772;2022-12-29T02:51:23;9.10;96.00
56478;DHT22;42382;53.210;5.772;2022-12-29T02:53:51;9.20;96.00
56478;DHT22;42382;53.210;5.772;2022-12-29T02:56:36;9.20;96.00
56478;DHT22;42382;53.210;5.772;2022-12-29T02:59:02;9.20;96.00
56478;DHT22;42382;53.210;5.772;2022-12-29T03:09:34;9.10;96.00
56478;DHT22;42382;53.210;5.772;2022-12-29T03:12:12;9.00;95.90
56478;DHT22;42382;53.210;5.772;2022-12-29T03:14:45;9.00;96.00
56478;DHT22;42382;53.210;5.772;2022-12-29T03:17:37;8.90;95.90
56478;DHT22;42382;53.210;5.772;2022-12-29T03:20:06;8.90;95.90
56478;DHT22;42382;53.210;5.772;2022-12-29T03:22:34;8.80;95.90
56478;DHT22;42382;53.210;5.772;2022-12-29T03:25:03;8.80;95.90
56478;DHT22;42382;53.210;5.772;2022-12-29T03:27:31;8.80;96.10
56478;DHT22;42382;53.210;5.772;2022-12-29T03:29:59;8.80;95.90
56478;DHT22;42382;53.210;5.772;2022-12-29T03:32:26;8.80;95.80
56478;DHT22;42382;53.210;5.772;2022-12-29T03:34:53;8.80;95.70
56478;DHT22;42382;53.210;5.772;2022-12-29T03:37:22;8.80;95.80
56478;DHT22;42382;53.210;5.772;2022-12-29T03:39:49;8.80;95.80
56478;DHT22;42382;53.210;5.772;2022-12-29T03:42:16;8.80;95.70
56478;DHT22;42382;53.210;5.772;2022-12-29T03:44:43;8.80;95.60
56478;DHT22;42382;53.210;5.772;2022-12-29T03:47:09;8.80;95.70
56478;DHT22;42382;53.210;5.772;2022-12-29T03:49:35;8.70;95.60
56478;DHT22;42382;53.210;5.772;2022-12-29T03:52:01;8.70;95.70
56478;DHT22;42382;53.210;5.772;2022-12-29T03:54:26;8.60;95.60
56478;DHT22;42382;53.210;5.772;2022-12-29T03:56:52;8.60;95.70
56478;DHT22;42382;53.210;5.772;2022-12-29T03:59:17;8.50;95.60
56478;DHT22;42382;53.210;5.772;2022-12-29T04:01:43;8.50;95.70
56478;DHT22;42382;53.210;5.772;2022-12-29T04:04:08;8.50;95.30
56478;DHT22;42382;53.210;5.772;2022-12-29T04:06:34;8.40;95.50
56478;DHT22;42382;53.210;5.772;2022-12-29T04:08:59;8.40;95.70
56478;DHT22;42382;53.210;5.772;2022-12-29T04:11:25;8.40;95.70
56478;DHT22;42382;53.210;5.772;2022-12-29T04:13:50;8.50;95.60
56478;DHT22;42382;53.210;5.772;2022-12-29T04:16:16;8.40;95.60
56478;DHT22;42382;53.210;5.772;2022-12-29T04:18:41;8.40;95.70
56478;DHT22;42382;53.210;5.772;2022-12-29T04:21:07;8.40;95.60
56478;DHT22;42382;53.210;5.772;2022-12-29T04:23:33;8.30;95.50
56478;DHT22;42382;53.210;5.772;2022-12-29T04:25:59;8.30;95.50
56478;DHT22;42382;53.210;5.772;2022-12-29T04:28:25;8.30;95.40
56478;DHT22;42382;53.210;5.772;2022-12-29T04:30:51;8.30;95.40
56478;DHT22;42382;53.210;5.772;2022-12-29T04:33:16;8.30;95.40
56478;DHT22;42382;53.210;5.772;2022-12-29T04:35:42;8.20;95.40
56478;DHT22;42382;53.210;5.772;2022-12-29T04:38:08;8.20;95.30
56478;DHT22;42382;53.210;5.772;2022-12-29T04:40:34;8.20;95.30
56478;DHT22;42382;53.210;5.772;2022-12-29T04:42:59;8.10;95.20
56478;DHT22;42382;53.210;5.772;2022-12-29T04:45:25;8.10;95.30
56478;DHT22;42382;53.210;5.772;2022-12-29T04:47:50;8.10;95.30
56478;DHT22;42382;53.210;5.772;2022-12-29T04:50:16;8.10;95.30
56478;DHT22;42382;53.210;5.772;2022-12-29T04:52:41;8.10;95.30
56478;DHT22;42382;53.210;5.772;2022-12-29T04:55:07;8.20;95.40
56478;DHT22;42382;53.210;5.772;2022-12-29T04:57:32;8.20;95.30
56478;DHT22;42382;53.210;5.772;2022-12-29T04:59:58;8.20;95.20
56478;DHT22;42382;53.210;5.772;2022-12-29T05:02:23;8.30;95.30
56478;DHT22;42382;53.210;5.772;2022-12-29T05:04:49;8.30;95.30
56478;DHT22;42382;53.210;5.772;2022-12-29T05:07:14;8.30;95.20
56478;DHT22;42382;53.210;5.772;2022-12-29T05:09:40;8.30;95.10
56478;DHT22;42382;53.210;5.772;2022-12-29T05:12:05;8.30;95.20
56478;DHT22;42382;53.210;5.772;2022-12-29T05:14:31;8.30;95.30
56478;DHT22;42382;53.210;5.772;2022-12-29T05:16:57;8.40;95.40
56478;DHT22;42382;53.210;5.772;2022-12-29T05:19:22;8.30;95.40
56478;DHT22;42382;53.210;5.772;2022-12-29T05:21:48;8.40;95.40
56478;DHT22;42382;53.210;5.772;2022-12-29T05:24:13;8.30;95.30
56478;DHT22;42382;53.210;5.772;2022-12-29T05:26:41;8.40;95.40
56478;DHT22;42382;53.210;5.772;2022-12-29T05:29:07;8.30;95.40
56478;DHT22;42382;53.210;5.772;2022-12-29T05:31:32;8.40;95.30
56478;DHT22;42382;53.210;5.772;2022-12-29T05:33:58;8.40;95.30
56478;DHT22;42382;53.210;5.772;2022-12-29T05:36:24;8.30;95.30
56478;DHT22;42382;53.210;5.772;2022-12-29T05:38:49;8.40;95.30
56478;DHT22;42382;53.210;5.772;2022-12-29T05:41:15;8.40;95.20
56478;DHT22;42382;53.210;5.772;2022-12-29T05:43:41;8.30;95.10
56478;DHT22;42382;53.210;5.772;2022-12-29T05:46:06;8.40;95.20
56478;DHT22;42382;53.210;5.772;2022-12-29T05:48:31;8.40;95.30
56478;DHT22;42382;53.210;5.772;2022-12-29T05:50:57;8.30;95.30
56478;DHT22;42382;53.210;5.772;2022-12-29T05:53:22;8.40;95.50
56478;DHT22;42382;53.210;5.772;2022-12-29T05:55:48;8.40;95.50
56478;DHT22;42382;53.210;5.772;2022-12-29T05:58:14;8.40;95.30
56478;DHT22;42382;53.210;5.772;2022-12-29T06:00:40;8.40;95.30
56478;DHT22;42382;53.210;5.772;2022-12-29T06:03:05;8.40;95.10
56478;DHT22;42382;53.210;5.772;2022-12-29T06:05:31;8.30;95.10
56478;DHT22;42382;53.210;5.772;2022-12-29T06:07:56;8.30;95.10
56478;DHT22;42382;53.210;5.772;2022-12-29T06:10:21;8.30;95.10
56478;DHT22;42382;53.210;5.772;2022-12-29T06:12:47;8.30;95.10
56478;DHT22;42382;53.210;5.772;2022-12-29T06:15:13;8.30;94.60
56478;DHT22;42382;53.210;5.772;2022-12-29T06:17:38;8.20;94.60
56478;DHT22;42382;53.210;5.772;2022-12-29T06:20:04;8.20;94.70
56478;DHT22;42382;53.210;5.772;2022-12-29T06:22:30;8.10;94.60
56478;DHT22;42382;53.210;5.772;2022-12-29T06:24:55;8.10;94.80
56478;DHT22;42382;53.210;5.772;2022-12-29T06:27:21;8.10;94.70
56478;DHT22;42382;53.210;5.772;2022-12-29T06:29:46;8.00;94.80
56478;DHT22;42382;53.210;5.772;2022-12-29T06:32:12;8.10;95.00
56478;DHT22;42382;53.210;5.772;2022-12-29T06:34:37;8.00;94.80
56478;DHT22;42382;53.210;5.772;2022-12-29T06:37:03;8.10;94.80
56478;DHT22;42382;53.210;5.772;2022-12-29T06:39:28;8.00;94.80
56478;DHT22;42382;53.210;5.772;2022-12-29T06:41:54;8.00;95.00
56478;DHT22;42382;53.210;5.772;2022-12-29T06:44:20;8.00;94.90
56478;DHT22;42382;53.210;5.772;2022-12-29T06:46:45;8.00;95.00
56478;DHT22;42382;53.210;5.772;2022-12-29T06:49:11;8.00;95.00
56478;DHT22;42382;53.210;5.772;2022-12-29T06:51:36;8.10;94.90
56478;DHT22;42382;53.210;5.772;2022-12-29T06:54:02;8.00;94.70
56478;DHT22;42382;53.210;5.772;2022-12-29T06:56:27;8.10;94.80
56478;DHT22;42382;53.210;5.772;2022-12-29T06:58:53;8.10;94.90
56478;DHT22;42382;53.210;5.772;2022-12-29T07:01:18;8.10;95.00
56478;DHT22;42382;53.210;5.772;2022-12-29T07:03:44;8.10;94.90
56478;DHT22;42382;53.210;5.772;2022-12-29T07:06:09;8.10;94.90
56478;DHT22;42382;53.210;5.772;2022-12-29T07:08:35;8.10;94.90
56478;DHT22;42382;53.210;5.772;2022-12-29T07:11:00;8.10;95.00
56478;DHT22;42382;53.210;5.772;2022-12-29T07:13:26;8.20;94.90
56478;DHT22;42382;53.210;5.772;2022-12-29T07:15:51;8.10;94.80
56478;DHT22;42382;53.210;5.772;2022-12-29T07:18:17;8.10;94.70
56478;DHT22;42382;53.210;5.772;2022-12-29T07:20:42;8.20;94.80
56478;DHT22;42382;53.210;5.772;2022-12-29T07:23:08;8.20;94.80
56478;DHT22;42382;53.210;5.772;2022-12-29T07:25:33;8.10;94.50
56478;DHT22;42382;53.210;5.772;2022-12-29T07:28:01;8.10;94.60
56478;DHT22;42382;53.210;5.772;2022-12-29T07:30:27;8.20;94.50
56478;DHT22;42382;53.210;5.772;2022-12-29T07:32:52;8.20;94.50
56478;DHT22;42382;53.210;5.772;2022-12-29T07:35:18;8.20;94.70
56478;DHT22;42382;53.210;5.772;2022-12-29T07:37:43;8.20;94.40
56478;DHT22;42382;53.210;5.772;2022-12-29T07:40:09;8.30;94.60
56478;DHT22;42382;53.210;5.772;2022-12-29T07:42:35;8.20;94.50
56478;DHT22;42382;53.210;5.772;2022-12-29T07:45:00;8.20;94.60
56478;DHT22;42382;53.210;5.772;2022-12-29T07:47:26;8.20;94.10
56478;DHT22;42382;53.210;5.772;2022-12-29T07:49:52;8.20;94.50
56478;DHT22;42382;53.210;5.772;2022-12-29T07:52:17;8.20;94.40
56478;DHT22;42382;53.210;5.772;2022-12-29T07:54:43;8.20;94.30
56478;DHT22;42382;53.210;5.772;2022-12-29T07:57:09;8.30;94.40
56478;DHT22;42382;53.210;5.772;2022-12-29T07:59:34;8.30;94.20
56478;DHT22;42382;53.210;5.772;2022-12-29T08:02:00;8.30;94.10
56478;DHT22;42382;53.210;5.772;2022-12-29T08:04:25;8.20;94.10
56478;DHT22;42382;53.210;5.772;2022-12-29T08:06:51;8.30;94.20
56478;DHT22;42382;53.210;5.772;2022-12-29T08:09:16;8.30;94.20
56478;DHT22;42382;53.210;5.772;2022-12-29T08:11:42;8.30;94.10
56478;DHT22;42382;53.210;5.772;2022-12-29T08:14:09;8.30;93.80
56478;DHT22;42382;53.210;5.772;2022-12-29T08:16:34;8.30;93.70
56478;DHT22;42382;53.210;5.772;2022-12-29T08:19:00;8.30;93.90
56478;DHT22;42382;53.210;5.772;2022-12-29T08:21:29;8.30;93.70
56478;DHT22;42382;53.210;5.772;2022-12-29T08:23:54;8.30;93.80
56478;DHT22;42382;53.210;5.772;2022-12-29T08:26:20;8.30;93.70
56478;DHT22;42382;53.210;5.772;2022-12-29T08:28:46;8.30;93.30
56478;DHT22;42382;53.210;5.772;2022-12-29T08:31:11;8.30;93.70
56478;DHT22;42382;53.210;5.772;2022-12-29T08:33:37;8.30;93.50
56478;DHT22;42382;53.210;5.772;2022-12-29T08:36:03;8.30;93.50
56478;DHT22;42382;53.210;5.772;2022-12-29T08:38:29;8.30;93.30
56478;DHT22;42382;53.210;5.772;2022-12-29T08:40:55;8.30;93.50
56478;DHT22;42382;53.210;5.772;2022-12-29T08:43:21;8.30;93.80
56478;DHT22;42382;53.210;5.772;2022-12-29T08:45:46;8.40;93.80
56478;DHT22;42382;53.210;5.772;2022-12-29T08:48:12;8.40;93.90
56478;DHT22;42382;53.210;5.772;2022-12-29T08:50:37;8.40;94.20
56478;DHT22;42382;53.210;5.772;2022-12-29T08:53:04;8.40;93.80
56478;DHT22;42382;53.210;5.772;2022-12-29T08:55:29;8.40;93.90
56478;DHT22;42382;53.210;5.772;2022-12-29T08:57:55;8.40;93.90
56478;DHT22;42382;53.210;5.772;2022-12-29T09:00:21;8.50;94.00
56478;DHT22;42382;53.210;5.772;2022-12-29T09:02:47;8.50;94.20
56478;DHT22;42382;53.210;5.772;2022-12-29T09:05:12;8.40;94.00
56478;DHT22;42382;53.210;5.772;2022-12-29T09:07:38;8.40;94.10
56478;DHT22;42382;53.210;5.772;2022-12-29T09:10:03;8.40;94.30
56478;DHT22;42382;53.210;5.772;2022-12-29T09:12:29;8.40;94.20
56478;DHT22;42382;53.210;5.772;2022-12-29T09:14:55;8.40;94.10
56478;DHT22;42382;53.210;5.772;2022-12-29T09:17:20;8.40;94.20
56478;DHT22;42382;53.210;5.772;2022-12-29T09:20:04;8.40;94.20
56478;DHT22;42382;53.210;5.772;2022-12-29T09:22:30;8.40;94.30
56478;DHT22;42382;53.210;5.772;2022-12-29T09:24:55;8.40;94.30
56478;DHT22;42382;53.210;5.772;2022-12-29T09:27:21;8.40;94.40
56478;DHT22;42382;53.210;5.772;2022-12-29T09:29:46;8.50;94.50
56478;DHT22;42382;53.210;5.772;2022-12-29T09:32:12;8.50;94.50
56478;DHT22;42382;53.210;5.772;2022-12-29T09:34:37;8.40;94.50
56478;DHT22;42382;53.210;5.772;2022-12-29T09:37:03;8.40;94.40
56478;DHT22;42382;53.210;5.772;2022-12-29T09:39:28;8.40;94.60
56478;DHT22;42382;53.210;5.772;2022-12-29T09:44:38;8.40;94.70
56478;DHT22;42382;53.210;5.772;2022-12-29T09:47:09;8.40;94.60
56478;DHT22;42382;53.210;5.772;2022-12-29T09:49:46;8.40;94.60
56478;DHT22;42382;53.210;5.772;2022-12-29T09:52:15;8.40;94.70
56478;DHT22;42382;53.210;5.772;2022-12-29T09:54:54;8.40;94.80
56478;DHT22;42382;53.210;5.772;2022-12-29T09:57:24;8.40;94.90
56478;DHT22;42382;53.210;5.772;2022-12-29T09:59:51;8.40;95.00
56478;DHT22;42382;53.210;5.772;2022-12-29T10:02:23;8.30;94.90
56478;DHT22;42382;53.210;5.772;2022-12-29T10:04:52;8.30;94.90
56478;DHT22;42382;53.210;5.772;2022-12-29T10:07:38;8.30;94.90
56478;DHT22;42382;53.210;5.772;2022-12-29T10:10:15;8.30;95.00
56478;DHT22;42382;53.210;5.772;2022-12-29T10:12:52;8.30;95.10
56478;DHT22;42382;53.210;5.772;2022-12-29T10:15:29;8.30;95.10
56478;DHT22;42382;53.210;5.772;2022-12-29T10:18:04;8.30;95.20
56478;DHT22;42382;53.210;5.772;2022-12-29T10:26:02;8.40;95.30
56478;DHT22;42382;53.210;5.772;2022-12-29T10:28:38;8.40;95.30
56478;DHT22;42382;53.210;5.772;2022-12-29T10:31:24;8.40;95.30
56478;DHT22;42382;53.210;5.772;2022-12-29T10:33:51;8.40;95.20
56478;DHT22;42382;53.210;5.772;2022-12-29T10:41:36;8.40;94.90
56478;DHT22;42382;53.210;5.772;2022-12-29T10:44:03;8.40;94.90
56478;DHT22;42382;53.210;5.772;2022-12-29T10:46:30;8.40;94.80
56478;DHT22;42382;53.210;5.772;2022-12-29T10:48:58;8.40;94.80
56478;DHT22;42382;53.210;5.772;2022-12-29T10:51:24;8.40;94.80
56478;DHT22;42382;53.210;5.772;2022-12-29T10:56:27;8.40;94.90
56478;DHT22;42382;53.210;5.772;2022-12-29T10:58:54;8.40;94.70
56478;DHT22;42382;53.210;5.772;2022-12-29T11:01:21;8.40;94.50
56478;DHT22;42382;53.210;5.772;2022-12-29T11:04:16;8.50;94.60
56478;DHT22;42382;53.210;5.772;2022-12-29T11:06:33;8.50;94.20
56478;DHT22;42382;53.210;5.772;2022-12-29T11:09:09;8.40;93.80
56478;DHT22;42382;53.210;5.772;2022-12-29T11:11:37;8.50;93.90
56478;DHT22;42382;53.210;5.772;2022-12-29T11:14:10;8.50;93.90
56478;DHT22;42382;53.210;5.772;2022-12-29T11:16:37;8.50;93.40
56478;DHT22;42382;53.210;5.772;2022-12-29T11:19:02;8.60;93.10
56478;DHT22;42382;53.210;5.772;2022-12-29T11:21:38;8.50;93.60
56478;DHT22;42382;53.210;5.772;2022-12-29T11:24:20;8.50;93.00
56478;DHT22;42382;53.210;5.772;2022-12-29T11:26:46;8.40;92.20
56478;DHT22;42382;53.210;5.772;2022-12-29T11:29:20;8.40;92.00
56478;DHT22;42382;53.210;5.772;2022-12-29T11:31:50;8.30;92.20
56478;DHT22;42382;53.210;5.772;2022-12-29T11:34:17;8.30;92.90
56478;DHT22;42382;53.210;5.772;2022-12-29T11:36:42;8.20;92.60
56478;DHT22;42382;53.210;5.772;2022-12-29T11:39:16;8.10;92.50
56478;DHT22;42382;53.210;5.772;2022-12-29T11:41:51;8.10;92.40
56478;DHT22;42382;53.210;5.772;2022-12-29T11:44:16;8.10;92.70
56478;DHT22;42382;53.210;5.772;2022-12-29T11:46:42;8.00;92.70
56478;DHT22;42382;53.210;5.772;2022-12-29T11:49:12;8.10;92.30
56478;DHT22;42382;53.210;5.772;2022-12-29T11:51:45;8.10;92.20
56478;DHT22;42382;53.210;5.772;2022-12-29T11:54:14;8.10;92.50
56478;DHT22;42382;53.210;5.772;2022-12-29T11:56:42;8.10;92.70
56478;DHT22;42382;53.210;5.772;2022-12-29T11:59:23;8.20;92.90
56478;DHT22;42382;53.210;5.772;2022-12-29T12:01:49;8.20;92.80
56478;DHT22;42382;53.210;5.772;2022-12-29T12:04:16;8.20;93.00
56478;DHT22;42382;53.210;5.772;2022-12-29T12:06:44;8.30;92.30
56478;DHT22;42382;53.210;5.772;2022-12-29T12:09:31;8.30;92.00
56478;DHT22;42382;53.210;5.772;2022-12-29T12:11:57;8.30;91.90
56478;DHT22;42382;53.210;5.772;2022-12-29T12:14:32;8.20;92.20
56478;DHT22;42382;53.210;5.772;2022-12-29T12:17:01;8.20;92.00
56478;DHT22;42382;53.210;5.772;2022-12-29T12:19:33;8.30;92.20
56478;DHT22;42382;53.210;5.772;2022-12-29T12:22:02;8.30;92.60
56478;DHT22;42382;53.210;5.772;2022-12-29T12:24:34;8.30;92.40
56478;DHT22;42382;53.210;5.772;2022-12-29T12:27:13;8.30;92.50
56478;DHT22;42382;53.210;5.772;2022-12-29T12:29:52;8.30;92.40
56478;DHT22;42382;53.210;5.772;2022-12-29T12:32:27;8.30;92.60
56478;DHT22;42382;53.210;5.772;2022-12-29T12:34:55;8.30;92.50
56478;DHT22;42382;53.210;5.772;2022-12-29T12:37:36;8.30;92.50
56478;DHT22;42382;53.210;5.772;2022-12-29T12:47:43;8.40;92.40
56478;DHT22;42382;53.210;5.772;2022-12-29T12:58:36;8.40;92.70
56478;DHT22;42382;53.210;5.772;2022-12-29T13:06:34;8.40;92.30
56478;DHT22;42382;53.210;5.772;2022-12-29T13:14:25;8.40;92.50
56478;DHT22;42382;53.210;5.772;2022-12-29T13:16:57;8.30;92.00
56478;DHT22;42382;53.210;5.772;2022-12-29T13:24:26;8.30;92.70
56478;DHT22;42382;53.210;5.772;2022-12-29T13:29:20;8.30;92.80
56478;DHT22;42382;53.210;5.772;2022-12-29T13:36:52;8.30;93.30
56478;DHT22;42382;53.210;5.772;2022-12-29T13:39:21;8.30;93.30
56478;DHT22;42382;53.210;5.772;2022-12-29T13:44:15;8.30;93.30
56478;DHT22;42382;53.210;5.772;2022-12-29T13:46:43;8.20;93.20
56478;DHT22;42382;53.210;5.772;2022-12-29T13:49:13;8.20;93.50
56478;DHT22;42382;53.210;5.772;2022-12-29T13:51:47;8.20;93.40
56478;DHT22;42382;53.210;5.772;2022-12-29T13:56:45;8.30;93.80
56478;DHT22;42382;53.210;5.772;2022-12-29T14:01:43;8.20;93.50
56478;DHT22;42382;53.210;5.772;2022-12-29T14:04:21;8.10;93.50
56478;DHT22;42382;53.210;5.772;2022-12-29T14:06:47;8.10;93.40
56478;DHT22;42382;53.210;5.772;2022-12-29T14:14:52;7.90;93.40
56478;DHT22;42382;53.210;5.772;2022-12-29T14:17:19;7.90;93.60
56478;DHT22;42382;53.210;5.772;2022-12-29T14:19:45;7.90;93.50
56478;DHT22;42382;53.210;5.772;2022-12-29T14:22:11;7.90;93.80
56478;DHT22;42382;53.210;5.772;2022-12-29T14:24:44;7.80;93.70
56478;DHT22;42382;53.210;5.772;2022-12-29T14:34:49;7.70;93.50
56478;DHT22;42382;53.210;5.772;2022-12-29T14:40:25;7.70;94.10
56478;DHT22;42382;53.210;5.772;2022-12-29T14:42:44;7.70;93.80
56478;DHT22;42382;53.210;5.772;2022-12-29T14:47:40;7.60;94.00
56478;DHT22;42382;53.210;5.772;2022-12-29T14:50:07;7.60;94.10
56478;DHT22;42382;53.210;5.772;2022-12-29T14:52:42;7.60;94.10
56478;DHT22;42382;53.210;5.772;2022-12-29T14:57:47;7.60;94.30
56478;DHT22;42382;53.210;5.772;2022-12-29T15:00:46;7.60;94.00
56478;DHT22;42382;53.210;5.772;2022-12-29T15:03:06;7.60;94.10
56478;DHT22;42382;53.210;5.772;2022-12-29T15:08:32;7.60;94.20
56478;DHT22;42382;53.210;5.772;2022-12-29T15:13:24;7.60;94.10
56478;DHT22;42382;53.210;5.772;2022-12-29T15:15:50;7.60;94.10
56478;DHT22;42382;53.210;5.772;2022-12-29T15:20:53;7.60;94.00
56478;DHT22;42382;53.210;5.772;2022-12-29T15:23:19;7.70;94.20
56478;DHT22;42382;53.210;5.772;2022-12-29T15:25:49;7.60;94.10
56478;DHT22;42382;53.210;5.772;2022-12-29T15:28:16;7.60;94.20
56478;DHT22;42382;53.210;5.772;2022-12-29T15:30:55;7.60;94.30
56478;DHT22;42382;53.210;5.772;2022-12-29T15:33:21;7.60;94.30
56478;DHT22;42382;53.210;5.772;2022-12-29T15:35:50;7.70;94.40
56478;DHT22;42382;53.210;5.772;2022-12-29T15:38:24;7.60;94.20
56478;DHT22;42382;53.210;5.772;2022-12-29T15:40:53;7.70;94.50
56478;DHT22;42382;53.210;5.772;2022-12-29T15:43:23;7.70;94.40
56478;DHT22;42382;53.210;5.772;2022-12-29T15:45:50;7.70;94.40
56478;DHT22;42382;53.210;5.772;2022-12-29T15:48:17;7.70;94.50
56478;DHT22;42382;53.210;5.772;2022-12-29T15:50:44;7.70;94.50
56478;DHT22;42382;53.210;5.772;2022-12-29T15:53:11;7.70;94.50
56478;DHT22;42382;53.210;5.772;2022-12-29T15:55:38;7.70;94.50
56478;DHT22;42382;53.210;5.772;2022-12-29T15:58:06;7.70;94.60
56478;DHT22;42382;53.210;5.772;2022-12-29T16:00:45;7.70;94.50
56478;DHT22;42382;53.210;5.772;2022-12-29T16:03:11;7.60;94.50
56478;DHT22;42382;53.210;5.772;2022-12-29T16:05:39;7.60;94.30
56478;DHT22;42382;53.210;5.772;2022-12-29T16:10:48;7.40;94.30
56478;DHT22;42382;53.210;5.772;2022-12-29T16:13:18;7.40;94.30
56478;DHT22;42382;53.210;5.772;2022-12-29T16:15:45;7.40;94.50
56478;DHT22;42382;53.210;5.772;2022-12-29T16:18:14;7.40;94.40
56478;DHT22;42382;53.210;5.772;2022-12-29T16:20:45;7.40;94.50
56478;DHT22;42382;53.210;5.772;2022-12-29T16:23:44;7.40;94.40
56478;DHT22;42382;53.210;5.772;2022-12-29T16:26:02;7.40;94.50
56478;DHT22;42382;53.210;5.772;2022-12-29T16:28:36;7.40;94.50
56478;DHT22;42382;53.210;5.772;2022-12-29T16:31:05;7.40;94.50
56478;DHT22;42382;53.210;5.772;2022-12-29T16:33:45;7.30;94.60
56478;DHT22;42382;53.210;5.772;2022-12-29T16:36:24;7.30;94.60
56478;DHT22;42382;53.210;5.772;2022-12-29T16:38:49;7.30;94.70
56478;DHT22;42382;53.210;5.772;2022-12-29T16:41:48;7.30;94.60
56478;DHT22;42382;53.210;5.772;2022-12-29T16:46:45;7.10;94.60
56478;DHT22;42382;53.210;5.772;2022-12-29T16:49:23;7.00;94.60
56478;DHT22;42382;53.210;5.772;2022-12-29T16:51:48;7.00;94.80
56478;DHT22;42382;53.210;5.772;2022-12-29T16:54:23;7.00;94.80
56478;DHT22;42382;53.210;5.772;2022-12-29T16:56:48;7.00;94.80
56478;DHT22;42382;53.210;5.772;2022-12-29T16:59:25;7.10;95.00
56478;DHT22;42382;53.210;5.772;2022-12-29T17:01:54;7.10;94.90
56478;DHT22;42382;53.210;5.772;2022-12-29T17:04:20;7.10;94.90
56478;DHT22;42382;53.210;5.772;2022-12-29T17:06:45;7.10;95.00
56478;DHT22;42382;53.210;5.772;2022-12-29T17:09:24;7.10;95.00
56478;DHT22;42382;53.210;5.772;2022-12-29T17:11:54;7.20;95.10
56478;DHT22;42382;53.210;5.772;2022-12-29T17:16:45;7.30;95.20
56478;DHT22;42382;53.210;5.772;2022-12-29T17:19:15;7.30;95.10
56478;DHT22;42382;53.210;5.772;2022-12-29T17:21:41;7.30;95.10
56478;DHT22;42382;53.210;5.772;2022-12-29T17:24:11;7.30;95.10
56478;DHT22;42382;53.210;5.772;2022-12-29T17:26:39;7.40;95.10
56478;DHT22;42382;53.210;5.772;2022-12-29T17:29:05;7.40;95.10
56478;DHT22;42382;53.210;5.772;2022-12-29T17:31:30;7.40;95.10
56478;DHT22;42382;53.210;5.772;2022-12-29T17:33:56;7.40;95.20
56478;DHT22;42382;53.210;5.772;2022-12-29T17:36:21;7.40;95.00
56478;DHT22;42382;53.210;5.772;2022-12-29T17:38:47;7.40;95.00
56478;DHT22;42382;53.210;5.772;2022-12-29T17:41:13;7.30;95.00
56478;DHT22;42382;53.210;5.772;2022-12-29T17:43:39;7.40;95.00
56478;DHT22;42382;53.210;5.772;2022-12-29T17:46:05;7.40;94.90
56478;DHT22;42382;53.210;5.772;2022-12-29T17:48:31;7.40;95.00
56478;DHT22;42382;53.210;5.772;2022-12-29T17:50:56;7.40;95.00
56478;DHT22;42382;53.210;5.772;2022-12-29T17:53:23;7.30;95.00
56478;DHT22;42382;53.210;5.772;2022-12-29T17:55:49;7.30;94.90
56478;DHT22;42382;53.210;5.772;2022-12-29T17:58:21;7.30;94.80
56478;DHT22;42382;53.210;5.772;2022-12-29T18:00:51;7.30;94.70